createdAt,value
2019-04-07T00:00:26.483Z,26.63
2019-04-07T00:02:53.569Z,28.67
2019-04-07T00:05:21.051Z,26.70
2019-04-07T00:07:49.524Z,26.43
2019-04-07T00:10:16.640Z,25.97
2019-04-07T00:12:44.103Z,25.37
2019-04-07T00:15:11.586Z,23.73
2019-04-07T00:17:39.173Z,24.33
2019-04-07T00:20:07.280Z,25.88
2019-04-07T00:22:34.537Z,25.43
2019-04-07T00:25:02.478Z,26.17
2019-04-07T00:27:29.051Z,25.85
2019-04-07T00:29:56.529Z,26.27
2019-04-07T00:32:24.938Z,27.13
2019-04-07T00:34:51.825Z,25.50
2019-04-07T00:37:18.956Z,26.50
2019-04-07T00:39:46.658Z,26.25
2019-04-07T00:42:13.851Z,25.83
2019-04-07T00:44:41.302Z,26.83
2019-04-07T00:47:08.766Z,26.37
2019-04-07T00:49:36.876Z,27.50
2019-04-07T00:52:06.159Z,27.33
2019-04-07T00:54:33.686Z,27.07
2019-04-07T00:57:01.167Z,26.57
2019-04-07T00:59:28.719Z,26.77
2019-04-07T01:01:56.739Z,24.50
2019-04-07T01:04:24.127Z,23.37
2019-04-07T01:06:51.194Z,24.13
2019-04-07T01:09:18.749Z,24.37
2019-04-07T01:11:46.156Z,22.40
2019-04-07T01:14:13.638Z,24.27
2019-04-07T01:16:41.761Z,22.80
2019-04-07T01:19:08.834Z,23.27
2019-04-07T01:21:36.132Z,23.70
2019-04-07T01:24:03.609Z,23.10
2019-04-07T01:26:31.792Z,23.60
2019-04-07T01:28:59.208Z,21.70
2019-04-07T01:31:26.039Z,22.65
2019-04-07T01:33:53.511Z,21.90
2019-04-07T01:36:21.471Z,22.47
2019-04-07T01:38:48.631Z,22.13
2019-04-07T01:41:21.718Z,22.10
2019-04-07T01:43:53.696Z,20.53
2019-04-07T01:46:22.117Z,21.37
2019-04-07T01:49:05.325Z,21.97
2019-04-07T01:51:42.711Z,20.70
2019-04-07T01:54:11.940Z,21.10
2019-04-07T01:56:55.275Z,22.37
2019-04-07T01:59:37.537Z,20.15
2019-04-07T02:02:10.090Z,20.05
2019-04-07T02:04:41.149Z,20.95
2019-04-07T02:07:12.978Z,21.53
2019-04-07T02:09:55.634Z,20.37
2019-04-07T02:12:32.338Z,20.90
2019-04-07T02:15:00.949Z,21.30
2019-04-07T02:17:33.467Z,21.65
2019-04-07T02:20:06.857Z,20.47
2019-04-07T02:22:53.175Z,21.13
2019-04-07T02:25:20.898Z,21.50
2019-04-07T02:27:53.094Z,22.10
2019-04-07T02:30:25.865Z,22.90
2019-04-07T02:32:54.397Z,21.03
2019-04-07T02:35:34.730Z,20.25
2019-04-07T02:40:41.020Z,20.73
2019-04-07T02:43:17.866Z,20.47
2019-04-07T02:46:04.373Z,20.47
2019-04-07T02:48:37.522Z,19.65
2019-04-07T02:51:10.406Z,19.85
2019-04-07T02:53:39.193Z,19.90
2019-04-07T02:56:25.134Z,21.03
2019-04-07T02:59:10.114Z,20.40
2019-04-07T03:01:43.420Z,20.17
2019-04-07T03:04:12.769Z,21.23
2019-04-07T03:06:47.501Z,21.57
2019-04-07T03:09:24.118Z,19.67
2019-04-07T03:11:53.841Z,20.03
2019-04-07T03:14:21.652Z,20.17
2019-04-07T03:16:54.223Z,20.73
2019-04-07T03:19:23.384Z,20.47
2019-04-07T03:21:54.221Z,19.83
2019-04-07T03:24:21.297Z,20.60
2019-04-07T03:26:54.147Z,19.03
2019-04-07T03:29:38.480Z,19.77
2019-04-07T03:32:08.495Z,21.17
2019-04-07T03:34:51.516Z,22.03
2019-04-07T03:37:35.319Z,20.47
2019-04-07T03:39:54.737Z,21.27
2019-04-07T03:42:26.811Z,20.75
2019-04-07T03:44:56.643Z,20.20
2019-04-07T03:47:24.233Z,21.07
2019-04-07T03:49:53.506Z,21.43
2019-04-07T03:52:37.875Z,19.50
2019-04-07T03:55:16.989Z,20.47
2019-04-07T03:57:49.409Z,21.07
2019-04-07T04:00:46.053Z,21.83
2019-04-07T04:03:13.356Z,20.27
2019-04-07T04:05:47.700Z,19.17
2019-04-07T04:08:18.721Z,21.10
2019-04-07T04:10:51.927Z,20.33
2019-04-07T04:13:29.286Z,21.40
2019-04-07T04:15:56.813Z,20.90
2019-04-07T04:18:24.215Z,20.97
2019-04-07T04:20:51.673Z,20.77
2019-04-07T04:23:19.802Z,20.50
2019-04-07T04:25:47.089Z,21.37
2019-04-07T04:28:14.308Z,21.33
2019-04-07T04:30:45.425Z,20.40
2019-04-07T04:33:12.901Z,19.10
2019-04-07T04:35:40.927Z,19.57
2019-04-07T04:38:08.139Z,20.00
2019-04-07T04:40:36.041Z,20.00
2019-04-07T04:43:02.915Z,19.60
2019-04-07T04:45:30.324Z,19.87
2019-04-07T04:47:57.791Z,20.05
2019-04-07T04:50:25.805Z,18.93
2019-04-07T04:52:52.700Z,19.13
2019-04-07T04:55:20.158Z,19.40
2019-04-07T04:57:47.989Z,20.47
2019-04-07T05:00:15.790Z,21.37
2019-04-07T05:02:42.567Z,21.33
2019-04-07T05:05:10.898Z,19.57
2019-04-07T05:07:49.852Z,20.47
2019-04-07T05:10:05.688Z,20.70
2019-04-07T05:12:32.399Z,20.77
2019-04-07T05:15:00.375Z,21.00
2019-04-07T05:17:27.521Z,21.95
2019-04-07T05:19:54.996Z,22.30
2019-04-07T05:22:22.558Z,20.70
2019-04-07T05:24:50.372Z,21.67
2019-04-07T05:27:17.427Z,21.97
2019-04-07T05:29:44.738Z,22.63
2019-04-07T05:32:12.248Z,22.63
2019-04-07T05:34:40.239Z,22.10
2019-04-07T05:37:07.615Z,23.23
2019-04-07T05:39:34.654Z,22.37
2019-04-07T05:42:02.294Z,21.70
2019-04-07T05:44:29.566Z,21.85
2019-04-07T05:46:57.042Z,22.07
2019-04-07T05:49:24.464Z,23.50
2019-04-07T05:51:51.907Z,23.67
2019-04-07T05:54:20.753Z,23.27
2019-04-07T05:56:46.829Z,22.30
2019-04-07T05:59:14.778Z,21.87
2019-04-07T06:01:41.746Z,21.92
2019-04-07T06:04:14.315Z,20.80
2019-04-07T06:06:37.069Z,22.00
2019-04-07T06:09:04.176Z,21.37
2019-04-07T06:11:34.010Z,21.30
2019-04-07T06:13:59.096Z,22.00
2019-04-07T06:16:26.761Z,21.20
2019-04-07T06:18:54.000Z,21.20
2019-04-07T06:21:22.215Z,20.27
2019-04-07T06:23:49.588Z,21.67
2019-04-07T06:26:17.333Z,22.17
2019-04-07T06:28:48.484Z,20.40
2019-04-07T06:31:11.819Z,20.57
2019-04-07T06:33:39.453Z,19.47
2019-04-07T06:36:06.969Z,21.12
2019-04-07T06:38:35.995Z,20.20
2019-04-07T06:41:03.001Z,19.37
2019-04-07T06:43:29.316Z,20.45
2019-04-07T06:46:12.907Z,20.23
2019-04-07T06:48:55.110Z,19.63
2019-04-07T06:51:22.351Z,19.63
2019-04-07T06:53:50.520Z,19.80
2019-04-07T06:56:19.658Z,20.37
2019-04-07T06:58:59.169Z,19.90
2019-04-07T07:01:32.422Z,19.60
2019-04-07T07:04:16.770Z,19.00
2019-04-07T07:06:48.263Z,19.23
2019-04-07T07:09:20.112Z,19.07
2019-04-07T07:11:52.594Z,21.05
2019-04-07T07:14:32.888Z,20.13
2019-04-07T07:16:51.072Z,19.50
2019-04-07T07:19:26.345Z,18.83
2019-04-07T07:21:57.968Z,19.00
2019-04-07T07:24:26.492Z,19.43
2019-04-07T07:26:52.930Z,19.57
2019-04-07T07:29:20.346Z,19.37
2019-04-07T07:31:48.331Z,19.43
2019-04-07T07:34:16.314Z,19.23
2019-04-07T07:36:43.248Z,19.07
2019-04-07T07:39:12.553Z,18.90
2019-04-07T07:41:38.897Z,18.87
2019-04-07T07:44:07.850Z,19.23
2019-04-07T07:46:34.360Z,19.53
2019-04-07T07:49:02.078Z,19.23
2019-04-07T07:51:29.388Z,18.83
2019-04-07T07:53:59.769Z,18.12
2019-04-07T07:56:24.513Z,17.57
2019-04-07T07:58:52.979Z,18.43
2019-04-07T08:01:19.948Z,17.43
2019-04-07T08:03:51.723Z,16.37
2019-04-07T08:06:15.151Z,15.97
2019-04-07T08:08:45.226Z,17.57
2019-04-07T08:11:11.218Z,16.63
2019-04-07T08:13:43.356Z,17.27
2019-04-07T08:16:06.375Z,17.10
2019-04-07T08:18:36.174Z,15.23
2019-04-07T08:21:01.243Z,14.77
2019-04-07T08:23:28.723Z,14.10
2019-04-07T08:25:57.851Z,13.83
2019-04-07T08:28:24.334Z,14.37
2019-04-07T08:30:51.947Z,13.43
2019-04-07T08:33:20.198Z,14.50
2019-04-07T08:35:47.953Z,13.73
2019-04-07T08:38:18.632Z,12.87
2019-04-07T08:40:42.137Z,14.00
2019-04-07T08:43:09.740Z,13.02
2019-04-07T08:45:37.198Z,13.17
2019-04-07T08:48:05.159Z,11.23
2019-04-07T08:50:32.258Z,12.32
2019-04-07T08:52:59.735Z,11.67
2019-04-07T08:55:28.215Z,11.75
2019-04-07T08:57:56.253Z,11.45
2019-04-07T09:00:23.821Z,10.47
2019-04-07T09:03:01.788Z,10.90
2019-04-07T09:05:23.039Z,11.23
2019-04-07T09:07:47.215Z,10.10
2019-04-07T09:10:18.725Z,9.23
2019-04-07T09:12:44.116Z,9.63
2019-04-07T09:15:12.837Z,9.03
2019-04-07T09:17:45.967Z,9.73
2019-04-07T09:20:13.517Z,9.70
2019-04-07T09:22:43.590Z,9.40
2019-04-07T09:25:17.215Z,8.70
2019-04-07T09:27:48.611Z,9.23
2019-04-07T09:30:17.306Z,7.37
2019-04-07T09:32:46.041Z,7.80
2019-04-07T09:35:14.449Z,8.63
2019-04-07T09:37:56.302Z,8.77
2019-04-07T09:40:42.467Z,8.37
2019-04-07T09:43:11.164Z,8.57
2019-04-07T09:45:43.662Z,7.70
2019-04-07T09:48:11.483Z,8.43
2019-04-07T09:50:55.443Z,7.37
2019-04-07T09:53:21.523Z,6.83
2019-04-07T09:55:56.859Z,7.30
2019-04-07T09:58:26.294Z,5.67
2019-04-07T10:00:57.700Z,5.77
2019-04-07T10:03:27.860Z,6.90
2019-04-07T10:05:56.292Z,6.97
2019-04-07T10:08:30.316Z,7.40
2019-04-07T10:10:58.358Z,7.10
2019-04-07T10:13:30.680Z,7.87
2019-04-07T10:16:02.361Z,6.62
2019-04-07T10:18:36.730Z,7.13
2019-04-07T10:21:03.241Z,6.82
2019-04-07T10:23:36.435Z,8.17
2019-04-07T10:26:09.466Z,8.48
2019-04-07T10:28:43.037Z,7.23
2019-04-07T10:31:09.673Z,9.83
2019-04-07T10:33:53.927Z,7.90
2019-04-07T10:36:39.416Z,9.07
2019-04-07T10:39:09.430Z,10.32
2019-04-07T10:41:50.902Z,9.40
2019-04-07T10:44:34.072Z,9.10
2019-04-07T10:47:07.159Z,10.18
2019-04-07T10:49:40.683Z,10.33
2019-04-07T10:52:14.705Z,10.02
2019-04-07T10:54:56.370Z,10.10
2019-04-07T10:57:28.948Z,8.67
2019-04-07T10:59:55.789Z,9.73
2019-04-07T11:02:28.006Z,9.68
2019-04-07T11:04:56.338Z,10.27
2019-04-07T11:07:24.953Z,10.20
2019-04-07T11:09:53.077Z,9.57
2019-04-07T11:12:37.881Z,9.60
2019-04-07T11:15:07.103Z,9.97
2019-04-07T11:17:35.017Z,10.13
2019-04-07T11:20:05.428Z,9.25
2019-04-07T11:22:38.434Z,8.80
2019-04-07T11:25:07.851Z,8.90
2019-04-07T11:27:50.417Z,9.10
2019-04-07T11:30:18.120Z,7.83
2019-04-07T11:32:47.857Z,8.60
2019-04-07T11:35:21.115Z,8.17
2019-04-07T11:37:49.241Z,8.17
2019-04-07T11:40:22.645Z,8.27
2019-04-07T11:42:52.379Z,6.90
2019-04-07T11:45:23.705Z,7.27
2019-04-07T11:48:06.574Z,7.97
2019-04-07T11:50:36.326Z,9.00
2019-04-07T11:53:09.092Z,8.00
2019-04-07T11:55:36.621Z,7.50
2019-04-07T11:58:24.055Z,8.05
2019-04-07T12:01:02.431Z,7.23
2019-04-07T12:03:35.602Z,8.33
2019-04-07T12:06:11.631Z,9.15
2019-04-07T12:08:44.594Z,8.60
2019-04-07T12:11:17.976Z,8.65
2019-04-07T12:13:50.951Z,8.10
2019-04-07T12:16:27.739Z,8.53
2019-04-07T12:18:57.875Z,6.77
2019-04-07T12:21:44.950Z,8.67
2019-04-07T12:24:13.543Z,8.65
2019-04-07T12:26:51.773Z,6.87
2019-04-07T12:29:25.454Z,8.20
2019-04-07T12:31:57.857Z,6.83
2019-04-07T12:34:29.630Z,9.90
2019-04-07T12:37:12.276Z,9.30
2019-04-07T12:39:55.498Z,9.70
2019-04-07T12:42:40.305Z,9.23
2019-04-07T12:45:24.245Z,10.20
2019-04-07T12:47:58.360Z,11.00
2019-04-07T12:50:35.453Z,9.80
2019-04-07T12:53:05.918Z,8.07
2019-04-07T12:55:37.569Z,10.25
2019-04-07T12:58:09.784Z,9.50
2019-04-07T13:00:44.618Z,8.50
2019-04-07T13:03:04.445Z,13.38
2019-04-07T13:05:35.510Z,8.17
2019-04-07T13:08:02.749Z,7.32
2019-04-07T13:10:40.614Z,9.95
2019-04-07T13:13:31.647Z,9.70
2019-04-07T13:16:12.290Z,9.45
2019-04-07T13:18:57.568Z,9.25
2019-04-07T13:21:26.706Z,9.43
2019-04-07T13:24:10.767Z,8.77
2019-04-07T13:26:33.601Z,9.13
2019-04-07T13:29:14.600Z,8.30
2019-04-07T13:31:58.362Z,9.27
2019-04-07T13:34:43.943Z,7.85
2019-04-07T13:37:12.436Z,8.50
2019-04-07T13:39:42.924Z,8.73
2019-04-07T13:42:11.342Z,9.38
2019-04-07T13:44:45.563Z,9.73
2019-04-07T13:47:31.933Z,9.20
2019-04-07T13:50:13.762Z,10.07
2019-04-07T13:52:42.437Z,10.15
2019-04-07T13:55:28.507Z,10.37
2019-04-07T13:58:00.675Z,9.60
2019-04-07T14:00:29.094Z,10.00
2019-04-07T14:02:59.095Z,10.20
2019-04-07T14:05:43.051Z,9.98
2019-04-07T14:08:16.053Z,10.02
2019-04-07T14:10:43.847Z,10.20
2019-04-07T14:13:28.244Z,10.60
2019-04-07T14:16:02.913Z,12.02
2019-04-07T14:18:35.643Z,10.87
2019-04-07T14:21:06.526Z,11.70
2019-04-07T14:23:39.450Z,10.70
2019-04-07T14:26:25.839Z,9.90
2019-04-07T14:29:08.653Z,9.93
2019-04-07T14:31:37.930Z,8.77
2019-04-07T14:34:10.749Z,10.80
2019-04-07T14:36:43.918Z,9.00
2019-04-07T14:39:12.852Z,9.63
2019-04-07T14:42:04.972Z,10.82
2019-04-07T14:44:25.922Z,9.40
2019-04-07T14:47:00.034Z,10.13
2019-04-07T14:49:29.806Z,9.37
2019-04-07T14:51:58.540Z,11.10
2019-04-07T14:54:30.549Z,9.90
2019-04-07T14:56:59.764Z,11.52
2019-04-07T14:59:33.056Z,10.37
2019-04-07T15:02:02.085Z,10.02
2019-04-07T15:04:38.638Z,9.13
2019-04-07T15:07:23.670Z,11.07
2019-04-07T15:09:58.508Z,10.07
2019-04-07T15:12:44.155Z,10.80
2019-04-07T15:15:11.894Z,10.47
2019-04-07T15:17:39.274Z,10.43
2019-04-07T15:20:07.457Z,12.25
2019-04-07T15:22:34.599Z,10.53
2019-04-07T15:25:01.511Z,10.83
2019-04-07T15:27:29.657Z,11.40
2019-04-07T15:29:57.810Z,11.77
2019-04-07T15:32:28.514Z,10.73
2019-04-07T15:34:52.639Z,10.77
2019-04-07T15:37:23.574Z,10.20
2019-04-07T15:39:48.378Z,9.63
2019-04-07T15:42:31.417Z,10.20
2019-04-07T15:44:43.667Z,11.07
2019-04-07T15:47:11.442Z,12.10
2019-04-07T15:49:39.923Z,13.10
2019-04-07T15:52:08.885Z,11.35
2019-04-07T15:54:35.081Z,10.23
2019-04-07T15:57:03.696Z,11.17
2019-04-07T15:59:31.398Z,10.80
2019-04-07T16:01:59.261Z,11.27
2019-04-07T16:04:29.296Z,10.53
2019-04-07T16:06:55.446Z,11.60
2019-04-07T16:09:31.478Z,11.57
2019-04-07T16:11:50.893Z,8.87
2019-04-07T16:14:17.661Z,10.20
2019-04-07T16:16:45.131Z,11.60
2019-04-07T16:19:19.608Z,9.68
2019-04-07T16:21:42.791Z,10.70
2019-04-07T16:24:07.876Z,10.57
2019-04-07T16:26:37.060Z,10.67
2019-04-07T16:29:03.316Z,10.37
2019-04-07T16:31:31.146Z,11.32
2019-04-07T16:33:59.176Z,10.93
2019-04-07T16:36:26.653Z,10.30
2019-04-07T16:38:54.876Z,11.03
2019-04-07T16:41:22.292Z,10.83
2019-04-07T16:43:49.435Z,11.03
2019-04-07T16:46:20.949Z,10.73
2019-04-07T16:48:45.122Z,12.30
2019-04-07T16:51:12.219Z,11.00
2019-04-07T16:53:42.077Z,11.37
2019-04-07T16:56:09.132Z,11.55
2019-04-07T16:58:38.745Z,11.80
2019-04-07T17:01:04.645Z,11.35
2019-04-07T17:03:31.810Z,12.13
2019-04-07T17:06:01.468Z,11.50
2019-04-07T17:08:28.840Z,11.03
2019-04-07T17:10:56.696Z,12.30
2019-04-07T17:13:34.675Z,11.30
2019-04-07T17:15:52.850Z,11.10
2019-04-07T17:18:36.839Z,11.70
2019-04-07T17:21:08.518Z,12.37
2019-04-07T17:23:33.529Z,11.67
2019-04-07T17:26:04.814Z,10.90
2019-04-07T17:28:29.181Z,11.03
2019-04-07T17:30:58.199Z,11.93
2019-04-07T17:33:24.441Z,11.43
2019-04-07T17:35:52.899Z,12.27
2019-04-07T17:38:19.221Z,12.05
2019-04-07T17:40:47.234Z,11.45
2019-04-07T17:43:25.304Z,12.17
2019-04-07T17:45:48.114Z,11.57
2019-04-07T17:48:21.329Z,11.80
2019-04-07T17:50:54.157Z,12.30
2019-04-07T17:53:26.477Z,12.10
2019-04-07T17:55:57.617Z,11.20
2019-04-07T17:58:44.208Z,11.23
2019-04-07T18:01:27.704Z,11.23
2019-04-07T18:03:52.813Z,10.97
2019-04-07T18:06:31.326Z,11.20
2019-04-07T18:09:07.885Z,11.50
2019-04-07T18:11:48.307Z,11.23
2019-04-07T18:14:22.293Z,13.60
2019-04-07T18:17:06.514Z,12.10
2019-04-07T18:19:39.575Z,12.43
2019-04-07T18:22:23.385Z,12.00
2019-04-07T18:24:49.502Z,12.32
2019-04-07T18:27:30.675Z,12.20
2019-04-07T18:30:00.587Z,11.67
2019-04-07T18:32:31.845Z,11.63
2019-04-07T18:35:03.021Z,12.87
2019-04-07T18:37:36.423Z,12.53
2019-04-07T18:40:16.662Z,12.90
2019-04-07T18:42:59.821Z,12.40
2019-04-07T18:45:48.027Z,13.23
2019-04-07T18:48:29.470Z,12.67
2019-04-07T18:51:00.925Z,12.23
2019-04-07T18:53:30.681Z,14.53
2019-04-07T18:56:03.472Z,13.13
2019-04-07T18:58:31.189Z,12.50
2019-04-07T19:01:13.738Z,12.67
2019-04-07T19:03:41.824Z,12.77
2019-04-07T19:06:14.783Z,13.20
2019-04-07T19:08:41.714Z,12.77
2019-04-07T19:11:27.637Z,12.70
2019-04-07T19:14:20.363Z,15.30
2019-04-07T19:16:39.465Z,13.83
2019-04-07T19:19:12.727Z,12.75
2019-04-07T19:21:46.306Z,13.10
2019-04-07T19:24:34.646Z,13.35
2019-04-07T19:27:12.711Z,13.63
2019-04-07T19:32:23.418Z,13.87
2019-04-07T19:34:55.354Z,14.10
2019-04-07T19:37:28.319Z,13.47
2019-04-07T19:40:02.488Z,13.68
2019-04-07T19:42:31.862Z,13.40
2019-04-07T19:45:05.694Z,14.23
2019-04-07T19:47:48.064Z,16.63
2019-04-07T19:50:21.471Z,14.87
2019-04-07T19:52:49.850Z,13.90
2019-04-07T19:55:25.636Z,14.47
2019-04-07T19:57:53.209Z,13.77
2019-04-07T20:00:35.781Z,14.57
2019-04-07T20:03:22.216Z,14.97
2019-04-07T20:05:53.287Z,13.93
2019-04-07T20:08:24.982Z,14.85
2019-04-07T20:10:58.858Z,14.60
2019-04-07T20:13:40.887Z,14.33
2019-04-07T20:16:12.964Z,14.33
2019-04-07T20:18:56.790Z,14.47
2019-04-07T20:21:33.939Z,14.77
2019-04-07T20:24:03.639Z,14.93
2019-04-07T20:26:32.638Z,14.60
2019-04-07T20:29:17.195Z,13.83
2019-04-07T20:32:00.522Z,14.93
2019-04-07T20:34:27.532Z,14.60
2019-04-07T20:37:00.651Z,14.97
2019-04-07T20:39:43.769Z,13.97
2019-04-07T20:42:17.432Z,15.15
2019-04-07T20:45:02.756Z,14.03
2019-04-07T20:47:28.523Z,15.20
2019-04-07T20:50:01.608Z,15.93
2019-04-07T20:52:32.706Z,14.80
2019-04-07T20:55:03.762Z,14.97
2019-04-07T20:57:32.983Z,14.93
2019-04-07T21:00:18.631Z,15.23
2019-04-07T21:03:15.189Z,15.93
2019-04-07T21:05:38.450Z,15.57
2019-04-07T21:08:08.950Z,15.45
2019-04-07T21:10:55.990Z,15.67
2019-04-07T21:13:25.249Z,15.53
2019-04-07T21:15:59.440Z,15.80
2019-04-07T21:18:42.275Z,16.63
2019-04-07T21:21:15.029Z,16.27
2019-04-07T21:23:59.593Z,16.55
2019-04-07T21:26:30.927Z,17.43
2019-04-07T21:28:56.736Z,16.98
2019-04-07T21:34:03.110Z,16.67
2019-04-07T21:36:41.522Z,16.93
2019-04-07T21:39:21.937Z,16.07
2019-04-07T21:41:52.067Z,16.42
2019-04-07T21:44:28.542Z,15.53
2019-04-07T21:46:58.117Z,16.70
2019-04-07T21:49:32.794Z,17.00
2019-04-07T21:51:57.722Z,16.55
2019-04-07T21:54:34.165Z,17.27
2019-04-07T21:57:02.335Z,16.80
2019-04-07T21:59:45.764Z,18.37
2019-04-07T22:02:26.474Z,17.50
2019-04-07T22:04:59.602Z,17.80
2019-04-07T22:07:33.683Z,16.47
2019-04-07T22:10:05.248Z,16.70
2019-04-07T22:12:31.969Z,18.20
2019-04-07T22:15:00.281Z,17.47
2019-04-07T22:17:27.691Z,18.53
2019-04-07T22:19:54.548Z,18.45
2019-04-07T22:22:24.085Z,17.77
2019-04-07T22:24:50.642Z,18.12
2019-04-07T22:27:21.159Z,17.93
2019-04-07T22:29:44.912Z,19.60
2019-04-07T22:32:14.880Z,18.83
2019-04-07T22:34:40.138Z,19.73
2019-04-07T22:37:07.926Z,19.33
2019-04-07T22:39:35.586Z,20.13
2019-04-07T22:42:02.956Z,19.50
2019-04-07T22:44:31.372Z,19.70
2019-04-07T22:46:58.596Z,20.58
2019-04-07T22:49:28.465Z,19.83
2019-04-07T22:51:55.413Z,19.73
2019-04-07T22:54:22.072Z,19.37
2019-04-07T22:56:49.350Z,18.73
2019-04-07T22:59:17.560Z,19.33
2019-04-07T23:01:44.382Z,19.60
2019-04-07T23:04:12.020Z,19.10
2019-04-07T23:06:39.283Z,18.53
2019-04-07T23:09:07.797Z,18.57
2019-04-07T23:11:34.267Z,17.53
2019-04-07T23:14:01.794Z,18.37
2019-04-07T23:16:29.500Z,18.90
2019-04-07T23:18:56.735Z,20.10
2019-04-07T23:21:24.672Z,18.17
2019-04-07T23:23:51.759Z,20.53
2019-04-07T23:26:20.113Z,20.05
2019-04-07T23:28:47.230Z,19.73
2019-04-07T23:31:14.499Z,19.10
2019-04-07T23:33:42.085Z,17.73
2019-04-07T23:36:09.552Z,18.17
2019-04-07T23:38:37.828Z,18.23
2019-04-07T23:41:05.414Z,18.70
2019-04-07T23:43:33.438Z,17.97
2019-04-07T23:46:00.363Z,17.87
2019-04-07T23:48:28.414Z,17.90
2019-04-07T23:50:56.154Z,17.70
2019-04-07T23:53:35.215Z,18.93
2019-04-07T23:56:03.752Z,17.62
2019-04-07T23:58:30.234Z,18.75
